createdAt,value
2022-08-28T00:00:43.707Z,99741.88
2022-08-28T00:03:12.718Z,99682.28
2022-08-28T00:05:41.515Z,99694.72
2022-08-28T00:08:10.599Z,99740.44
2022-08-28T00:10:40.278Z,99719.91
2022-08-28T00:13:09.468Z,99733.25
2022-08-28T00:15:38.320Z,99689.03
2022-08-28T00:18:07.218Z,99732.31
2022-08-28T00:20:35.491Z,99697.13
2022-08-28T00:23:02.913Z,99734.13
2022-08-28T00:25:30.699Z,99691.25
2022-08-28T00:28:05.213Z,99710.06
2022-08-28T00:30:42.756Z,99715.88
2022-08-28T00:33:23.339Z,99689.59
2022-08-28T00:35:51.549Z,99677.28
2022-08-28T00:38:20.541Z,99711.13
2022-08-28T00:40:52.017Z,99709.06
2022-08-28T00:43:39.652Z,99714.34
2022-08-28T00:46:10.881Z,99706.47
2022-08-28T00:48:38.278Z,99690.50
2022-08-28T00:51:25.784Z,99656.53
2022-08-28T00:53:58.620Z,99661.03
2022-08-28T00:56:27.742Z,99688.38
2022-08-28T00:58:57.800Z,99699.88
2022-08-28T01:01:24.736Z,99687.47
2022-08-28T01:03:51.696Z,99621.78
2022-08-28T01:06:20.868Z,99683.22
2022-08-28T01:08:50.540Z,99684.22
2022-08-28T01:11:19.629Z,99691.50
2022-08-28T01:13:48.714Z,99688.84
2022-08-28T01:16:18.356Z,99691.81
2022-08-28T01:18:47.168Z,99651.38
2022-08-28T01:21:22.482Z,99687.91
2022-08-28T01:23:58.363Z,99687.91
2022-08-28T01:26:29.954Z,99683.38
2022-08-28T01:28:58.719Z,99691.28
2022-08-28T01:31:28.474Z,99681.28
2022-08-28T01:33:55.469Z,99686.28
2022-08-28T01:36:22.363Z,99633.16
2022-08-28T01:38:53.099Z,99655.53
2022-08-28T01:41:20.997Z,99674.22
2022-08-28T01:43:49.107Z,99680.00
2022-08-28T01:46:16.097Z,99651.16
2022-08-28T01:48:43.800Z,99669.34
2022-08-28T01:51:12.098Z,99657.66
2022-08-28T01:53:40.090Z,99670.44
2022-08-28T01:56:10.861Z,99663.13
2022-08-28T01:58:38.730Z,99654.69
2022-08-28T02:01:18.971Z,99675.44
2022-08-28T02:03:46.916Z,99672.00
2022-08-28T02:06:18.022Z,99663.94
2022-08-28T02:08:45.118Z,99608.41
2022-08-28T02:11:13.033Z,99669.75
2022-08-28T02:13:40.473Z,99627.97
2022-08-28T02:16:09.405Z,99669.44
2022-08-28T02:18:38.050Z,99656.94
2022-08-28T02:21:07.067Z,99645.94
2022-08-28T02:23:34.207Z,99631.94
2022-08-28T02:26:01.148Z,99575.13
2022-08-28T02:28:28.182Z,99641.69
2022-08-28T02:30:55.368Z,99652.78
2022-08-28T02:33:22.333Z,99606.25
2022-08-28T02:35:52.419Z,99640.75
2022-08-28T02:38:19.255Z,99630.00
2022-08-28T02:40:46.206Z,99618.50
2022-08-28T02:43:13.074Z,99598.19
2022-08-28T02:45:39.920Z,99626.44
2022-08-28T02:48:12.059Z,99551.41
2022-08-28T02:50:44.021Z,99614.38
2022-08-28T02:53:11.896Z,99623.59
2022-08-28T02:55:38.697Z,99634.03
2022-08-28T02:58:06.933Z,99641.34
2022-08-28T03:00:34.133Z,99641.13
2022-08-28T03:03:00.963Z,99618.78
2022-08-28T03:05:27.828Z,99604.13
2022-08-28T03:07:54.961Z,99609.88
2022-08-28T03:10:22.486Z,99634.09
2022-08-28T03:12:49.503Z,99619.22
2022-08-28T03:15:18.318Z,99641.50
2022-08-28T03:17:46.042Z,99635.06
2022-08-28T03:20:15.352Z,99634.03
2022-08-28T03:23:00.998Z,99601.03
2022-08-28T03:25:28.185Z,99640.00
2022-08-28T03:27:55.539Z,99624.50
2022-08-28T03:30:23.641Z,99616.13
2022-08-28T03:32:50.516Z,99645.25
2022-08-28T03:35:17.774Z,99583.41
2022-08-28T03:37:44.778Z,99633.69
2022-08-28T03:40:12.982Z,99583.72
2022-08-28T03:42:40.004Z,99648.16
2022-08-28T03:45:11.307Z,99628.22
2022-08-28T03:47:39.618Z,99634.91
2022-08-28T03:50:08.857Z,99602.22
2022-08-28T03:52:40.024Z,99628.34
2022-08-28T03:55:09.911Z,99633.91
2022-08-28T03:57:36.903Z,99635.38
2022-08-28T04:00:11.114Z,99584.00
2022-08-28T04:02:38.337Z,99647.72
2022-08-28T04:05:05.824Z,99632.19
2022-08-28T04:07:32.693Z,99640.84
2022-08-28T04:09:59.647Z,99568.78
2022-08-28T04:12:26.475Z,99641.53
2022-08-28T04:14:55.304Z,99592.38
2022-08-28T04:17:22.120Z,99620.63
2022-08-28T04:19:52.879Z,99589.38
2022-08-28T04:22:19.876Z,99621.88
2022-08-28T04:24:50.511Z,99603.53
2022-08-28T04:27:17.365Z,99612.53
2022-08-28T04:29:44.310Z,99638.31
2022-08-28T04:32:11.211Z,99619.66
2022-08-28T04:34:38.714Z,99595.13
2022-08-28T04:37:06.652Z,99555.88
2022-08-28T04:39:33.870Z,99617.63
2022-08-28T04:42:00.968Z,99602.22
2022-08-28T04:44:28.105Z,99597.28
2022-08-28T04:46:54.982Z,99637.47
2022-08-28T04:49:25.857Z,99620.13
2022-08-28T04:51:53.041Z,99646.78
2022-08-28T04:54:20.619Z,99630.72
2022-08-28T04:56:47.497Z,99649.09
2022-08-28T04:59:14.710Z,99641.50
2022-08-28T05:01:42.788Z,99645.53
2022-08-28T05:04:11.714Z,99629.06
2022-08-28T05:06:46.586Z,99629.06
2022-08-28T05:09:16.183Z,99645.50
2022-08-28T05:11:44.130Z,99647.72
2022-08-28T05:14:15.865Z,99651.16
2022-08-28T05:16:48.963Z,99638.13
2022-08-28T05:19:17.099Z,99646.88
2022-08-28T05:21:44.243Z,99568.09
2022-08-28T05:24:11.823Z,99652.47
2022-08-28T05:26:40.198Z,99651.66
2022-08-28T05:29:08.203Z,99650.44
2022-08-28T05:31:35.342Z,99640.22
2022-08-28T05:34:04.895Z,99656.13
2022-08-28T05:36:35.922Z,99574.59
2022-08-28T05:39:06.122Z,99671.31
2022-08-28T05:41:33.854Z,99646.91
2022-08-28T05:44:07.465Z,99673.69
2022-08-28T05:46:34.825Z,99676.34
2022-08-28T05:49:03.941Z,99631.66
2022-08-28T05:51:34.539Z,99656.88
2022-08-28T05:54:02.448Z,99680.53
2022-08-28T05:56:32.908Z,99674.78
2022-08-28T05:59:02.000Z,99691.75
2022-08-28T06:01:31.510Z,99672.47
2022-08-28T06:04:08.691Z,99699.75
2022-08-28T06:06:39.685Z,99707.69
2022-08-28T06:09:15.914Z,99645.97
2022-08-28T06:11:46.321Z,99674.69
2022-08-28T06:14:17.471Z,99720.41
2022-08-28T06:16:47.364Z,99689.13
2022-08-28T06:19:14.816Z,99734.09
2022-08-28T06:21:42.063Z,99631.84
2022-08-28T06:24:10.693Z,99740.16
2022-08-28T06:26:37.511Z,99735.88
2022-08-28T06:29:08.018Z,99743.44
2022-08-28T06:31:35.156Z,99757.81
2022-08-28T06:34:02.450Z,99752.13
2022-08-28T06:36:32.532Z,99759.84
2022-08-28T06:39:00.644Z,99753.88
2022-08-28T06:41:29.021Z,99747.09
2022-08-28T06:43:56.609Z,99769.16
2022-08-28T06:46:25.196Z,99780.31
2022-08-28T06:48:52.876Z,99771.06
2022-08-28T06:51:19.965Z,99724.03
2022-08-28T06:53:49.963Z,99778.84
2022-08-28T06:56:25.941Z,99770.41
2022-08-28T06:58:55.839Z,99762.91
2022-08-28T07:01:27.234Z,99798.69
2022-08-28T07:03:56.994Z,99741.13
2022-08-28T07:06:24.242Z,99807.75
2022-08-28T07:08:51.662Z,99795.56
2022-08-28T07:11:26.319Z,99803.16
2022-08-28T07:13:54.718Z,99775.66
2022-08-28T07:16:25.163Z,99771.91
2022-08-28T07:18:52.318Z,99731.41
2022-08-28T07:21:20.717Z,99806.78
2022-08-28T07:23:50.452Z,99810.16
2022-08-28T07:26:21.286Z,99791.13
2022-08-28T07:28:48.909Z,99788.13
2022-08-28T07:31:19.167Z,99811.41
2022-08-28T07:33:46.699Z,99766.13
2022-08-28T07:36:28.868Z,99816.72
2022-08-28T07:38:57.611Z,99807.56
2022-08-28T07:41:29.988Z,99815.06
2022-08-28T07:44:15.756Z,99815.97
2022-08-28T07:46:43.211Z,99816.91
2022-08-28T07:49:10.814Z,99805.44
2022-08-28T07:51:37.863Z,99805.25
2022-08-28T07:54:05.526Z,99805.84
2022-08-28T07:56:33.267Z,99831.44
2022-08-28T07:59:03.611Z,99809.44
2022-08-28T08:01:31.614Z,99824.63
2022-08-28T08:04:01.583Z,99784.78
2022-08-28T08:06:33.211Z,99816.50
2022-08-28T08:09:02.177Z,99807.91
2022-08-28T08:11:32.583Z,99828.38
2022-08-28T08:14:05.814Z,99812.56
2022-08-28T08:16:35.681Z,99827.94
2022-08-28T08:19:03.538Z,99795.13
2022-08-28T08:21:31.057Z,99762.28
2022-08-28T08:23:58.845Z,99819.13
2022-08-28T08:26:28.406Z,99836.34
2022-08-28T08:28:56.439Z,99833.94
2022-08-28T08:31:27.894Z,99762.25
2022-08-28T08:34:02.105Z,99835.84
2022-08-28T08:36:30.709Z,99844.69
2022-08-28T08:38:59.885Z,99747.75
2022-08-28T08:41:35.503Z,99848.25
2022-08-28T08:44:14.396Z,99844.84
2022-08-28T08:47:22.728Z,99851.53
2022-08-28T08:49:49.542Z,99852.50
2022-08-28T08:52:37.463Z,99849.19
2022-08-28T08:55:24.896Z,99854.59
2022-08-28T08:57:57.181Z,99843.56
2022-08-28T09:00:25.356Z,99840.75
2022-08-28T09:03:18.851Z,99853.75
2022-08-28T09:05:55.248Z,99848.81
2022-08-28T09:08:45.999Z,99840.03
2022-08-28T09:12:03.933Z,99860.00
2022-08-28T09:14:46.275Z,99849.63
2022-08-28T09:17:17.818Z,99842.59
2022-08-28T09:19:44.615Z,99846.53
2022-08-28T09:22:11.867Z,99837.63
2022-08-28T09:24:40.229Z,99854.28
2022-08-28T09:27:21.631Z,99831.25
2022-08-28T09:30:15.413Z,99801.41
2022-08-28T09:32:58.162Z,99851.66
2022-08-28T09:35:31.146Z,99860.94
2022-08-28T09:38:27.844Z,99843.88
2022-08-28T09:41:29.290Z,99822.94
2022-08-28T09:43:57.365Z,99868.81
2022-08-28T09:46:32.599Z,99848.53
2022-08-28T09:49:12.307Z,99870.38
2022-08-28T09:51:40.037Z,99868.34
2022-08-28T09:54:17.418Z,99856.69
2022-08-28T09:56:45.116Z,99879.19
2022-08-28T09:59:17.929Z,99847.66
2022-08-28T10:04:40.801Z,99880.69
2022-08-28T10:07:46.249Z,99871.00
2022-08-28T10:10:31.934Z,99874.81
2022-08-28T10:13:16.299Z,99868.53
2022-08-28T10:16:14.631Z,99858.75
2022-08-28T10:18:53.241Z,99860.19
2022-08-28T10:21:45.446Z,99856.00
2022-08-28T10:24:25.989Z,99853.25
2022-08-28T10:27:31.864Z,99860.91
2022-08-28T10:30:16.549Z,99859.09
2022-08-28T10:33:10.403Z,99857.19
2022-08-28T10:35:51.619Z,99868.41
2022-08-28T10:38:53.053Z,99830.06
2022-08-28T10:41:24.075Z,99861.81
2022-08-28T10:43:54.344Z,99863.81
2022-08-28T10:46:35.143Z,99862.06
2022-08-28T10:49:05.746Z,99775.41
2022-08-28T10:51:49.124Z,99834.00
2022-08-28T10:54:48.877Z,99855.41
2022-08-28T10:57:39.517Z,99853.53
2022-08-28T11:00:13.483Z,99836.09
2022-08-28T11:02:48.717Z,99843.34
2022-08-28T11:05:21.929Z,99841.19
2022-08-28T11:07:53.345Z,99770.63
2022-08-28T11:10:22.555Z,99858.91
2022-08-28T11:12:57.312Z,99835.13
2022-08-28T11:15:31.496Z,99840.56
2022-08-28T11:18:15.907Z,99836.31
2022-08-28T11:20:55.669Z,99830.16
2022-08-28T11:23:37.556Z,99821.66
2022-08-28T11:26:09.691Z,99833.41
2022-08-28T11:28:36.537Z,99844.81
2022-08-28T11:31:06.404Z,99837.03
2022-08-28T11:33:45.661Z,99834.50
2022-08-28T11:36:32.812Z,99797.88
2022-08-28T11:39:04.174Z,99838.28
2022-08-28T11:41:33.100Z,99848.72
2022-08-28T11:43:59.864Z,99845.91
2022-08-28T11:46:38.880Z,99831.66
2022-08-28T11:49:28.245Z,99829.75
2022-08-28T11:52:13.828Z,99840.69
2022-08-28T11:55:16.801Z,99831.31
2022-08-28T11:57:49.584Z,99836.38
2022-08-28T12:00:22.586Z,99822.81
2022-08-28T12:03:00.765Z,99804.13
2022-08-28T12:05:33.584Z,99822.09
2022-08-28T12:08:03.011Z,99828.78
2022-08-28T12:10:40.742Z,99832.47
2022-08-28T12:13:35.812Z,99833.78
2022-08-28T12:16:07.818Z,99812.53
2022-08-28T12:18:42.833Z,99828.72
2022-08-28T12:21:18.101Z,99817.19
2022-08-28T12:24:09.751Z,99818.56
2022-08-28T12:26:42.776Z,99835.94
2022-08-28T12:29:28.480Z,99841.25
2022-08-28T12:32:23.106Z,99835.28
2022-08-28T12:34:59.029Z,99835.53
2022-08-28T12:37:42.914Z,99793.97
2022-08-28T12:40:23.337Z,99830.56
2022-08-28T12:43:00.381Z,99833.31
2022-08-28T12:46:19.692Z,99837.75
2022-08-28T12:49:01.322Z,99840.09
2022-08-28T12:51:31.397Z,99838.16
2022-08-28T12:54:03.413Z,99843.31
2022-08-28T12:56:36.708Z,99839.75
2022-08-28T12:59:22.079Z,99834.56
2022-08-28T13:01:54.723Z,99842.78
2022-08-28T13:04:23.797Z,99853.16
2022-08-28T13:07:02.289Z,99809.91
2022-08-28T13:09:29.526Z,99838.69
2022-08-28T13:11:59.155Z,99835.03
2022-08-28T13:14:46.045Z,99817.31
2022-08-28T13:17:15.419Z,99816.59
2022-08-28T13:19:42.650Z,99829.56
2022-08-28T13:22:33.517Z,99820.13
2022-08-28T13:25:02.664Z,99795.41
2022-08-28T13:27:29.544Z,99810.94
2022-08-28T13:30:28.241Z,99794.63
2022-08-28T13:33:06.460Z,99793.72
2022-08-28T13:35:42.243Z,99803.09
2022-08-28T13:38:16.721Z,99779.50
2022-08-28T13:41:01.839Z,99808.25
2022-08-28T13:43:42.292Z,99796.03
2022-08-28T13:46:09.235Z,99774.44
2022-08-28T13:48:39.048Z,99819.06
2022-08-28T13:51:12.699Z,99779.03
2022-08-28T13:53:48.337Z,99798.69
2022-08-28T13:56:17.140Z,99777.91
2022-08-28T13:58:44.761Z,99785.69
2022-08-28T14:01:23.092Z,99789.34
2022-08-28T14:03:58.937Z,99789.75
2022-08-28T14:06:31.465Z,99797.16
2022-08-28T14:08:59.162Z,99802.06
2022-08-28T14:11:26.702Z,99784.06
2022-08-28T14:13:55.705Z,99763.56
2022-08-28T14:16:23.411Z,99776.28
2022-08-28T14:18:53.039Z,99785.69
2022-08-28T14:21:20.330Z,99782.03
2022-08-28T14:23:47.070Z,99755.84
2022-08-28T14:26:13.978Z,99770.59
2022-08-28T14:28:40.797Z,99747.63
2022-08-28T14:31:12.303Z,99757.09
2022-08-28T14:33:42.370Z,99775.47
2022-08-28T14:36:16.939Z,99767.28
2022-08-28T14:38:43.823Z,99764.78
2022-08-28T14:41:10.785Z,99767.66
2022-08-28T14:43:37.842Z,99767.66
2022-08-28T14:46:08.300Z,99777.06
2022-08-28T14:48:37.889Z,99760.66
2022-08-28T14:51:04.899Z,99766.03
2022-08-28T14:53:31.846Z,99766.00
2022-08-28T14:55:58.627Z,99771.72
2022-08-28T14:58:25.659Z,99772.88
2022-08-28T15:00:52.986Z,99785.53
2022-08-28T15:03:20.338Z,99770.00
2022-08-28T15:05:47.919Z,99772.06
2022-08-28T15:08:17.640Z,99760.16
2022-08-28T15:10:45.446Z,99775.72
2022-08-28T15:13:15.202Z,99756.00
2022-08-28T15:15:42.709Z,99765.44
2022-08-28T15:18:10.883Z,99757.25
2022-08-28T15:20:43.092Z,99778.91
2022-08-28T15:23:11.002Z,99780.53
2022-08-28T15:25:38.149Z,99773.94
2022-08-28T15:28:05.769Z,99775.19
2022-08-28T15:30:33.081Z,99748.59
2022-08-28T15:32:59.910Z,99754.31
2022-08-28T15:35:26.644Z,99760.03
2022-08-28T15:37:53.977Z,99760.06
2022-08-28T15:40:39.829Z,99749.88
2022-08-28T15:43:06.920Z,99756.44
2022-08-28T15:45:37.759Z,99757.25
2022-08-28T15:48:04.751Z,99763.38
2022-08-28T15:50:31.728Z,99731.84
2022-08-28T15:52:58.870Z,99751.91
2022-08-28T15:55:26.474Z,99692.97
2022-08-28T15:57:54.608Z,99721.63
2022-08-28T16:00:22.015Z,99750.31
2022-08-28T16:02:49.059Z,99738.81
2022-08-28T16:05:16.675Z,99748.22
2022-08-28T16:07:43.764Z,99728.16
2022-08-28T16:10:13.517Z,99729.81
2022-08-28T16:12:41.355Z,99728.19
2022-08-28T16:15:09.267Z,99716.38
2022-08-28T16:17:36.448Z,99720.88
2022-08-28T16:20:13.177Z,99704.50
2022-08-28T16:22:40.188Z,99703.66
2022-08-28T16:25:07.922Z,99724.97
2022-08-28T16:27:34.693Z,99668.50
2022-08-28T16:30:03.029Z,99718.00
2022-08-28T16:32:30.251Z,99720.06
2022-08-28T16:34:58.413Z,99704.50
2022-08-28T16:37:26.186Z,99714.34
2022-08-28T16:40:06.677Z,99711.88
2022-08-28T16:42:33.505Z,99740.53
2022-08-28T16:45:00.335Z,99729.47
2022-08-28T16:47:28.445Z,99741.34
2022-08-28T16:50:00.691Z,99743.00
2022-08-28T16:52:27.947Z,99741.72
2022-08-28T16:54:54.777Z,99725.78
2022-08-28T16:57:22.049Z,99725.00
2022-08-28T16:59:53.033Z,99740.56
2022-08-28T17:02:26.627Z,99741.34
2022-08-28T17:04:55.694Z,99737.28
2022-08-28T17:07:23.081Z,99732.34
2022-08-28T17:09:49.936Z,99720.03
2022-08-28T17:12:17.217Z,99738.94
2022-08-28T17:14:44.263Z,99732.38
2022-08-28T17:17:11.819Z,99747.13
2022-08-28T17:19:39.066Z,99737.66
2022-08-28T17:22:27.361Z,99748.72
2022-08-28T17:24:54.846Z,99751.97
2022-08-28T17:27:22.584Z,99754.06
2022-08-28T17:29:50.890Z,99748.34
2022-08-28T17:32:17.752Z,99739.72
2022-08-28T17:34:44.866Z,99745.47
2022-08-28T17:37:12.220Z,99752.44
2022-08-28T17:39:39.268Z,99751.22
2022-08-28T17:42:06.313Z,99709.84
2022-08-28T17:44:35.393Z,99730.69
2022-08-28T17:47:02.356Z,99758.47
2022-08-28T17:49:29.267Z,99746.59
2022-08-28T17:51:56.276Z,99751.06
2022-08-28T17:54:24.490Z,99739.56
2022-08-28T17:56:55.110Z,99743.66
2022-08-28T17:59:23.847Z,99735.06
2022-08-28T18:01:51.217Z,99759.19
2022-08-28T18:04:23.788Z,99754.28
2022-08-28T18:06:55.062Z,99744.84
2022-08-28T18:09:23.318Z,99730.91
2022-08-28T18:11:50.746Z,99757.50
2022-08-28T18:14:17.724Z,99717.38
2022-08-28T18:16:44.872Z,99754.66
2022-08-28T18:19:12.151Z,99760.75
2022-08-28T18:21:40.262Z,99741.88
2022-08-28T18:24:08.409Z,99741.06
2022-08-28T18:26:35.195Z,99739.34
2022-08-28T18:29:02.037Z,99750.78
2022-08-28T18:31:29.028Z,99767.22
2022-08-28T18:33:56.011Z,99745.91
2022-08-28T18:36:23.405Z,99772.94
2022-08-28T18:38:50.364Z,99774.94
2022-08-28T18:41:17.242Z,99757.25
2022-08-28T18:43:44.222Z,99758.78
2022-08-28T18:46:11.706Z,99783.31
2022-08-28T18:48:38.618Z,99769.78
2022-08-28T18:51:08.043Z,99774.34
2022-08-28T18:53:36.117Z,99751.31
2022-08-28T18:56:04.514Z,99761.16
2022-08-28T18:58:31.668Z,99775.78
2022-08-28T19:00:59.873Z,99780.19
2022-08-28T19:03:26.920Z,99804.31
2022-08-28T19:05:55.198Z,99774.69
2022-08-28T19:08:23.508Z,99800.91
2022-08-28T19:10:50.415Z,99794.34
2022-08-28T19:13:17.765Z,99810.63
2022-08-28T19:15:52.795Z,99813.88
2022-08-28T19:18:20.072Z,99823.25
2022-08-28T19:20:47.213Z,99824.41
2022-08-28T19:23:17.418Z,99833.25
2022-08-28T19:25:45.300Z,99811.03
2022-08-28T19:28:12.279Z,99833.53
2022-08-28T19:30:39.091Z,99837.06
2022-08-28T19:33:06.399Z,99830.06
2022-08-28T19:35:33.993Z,99834.84
2022-08-28T19:38:01.231Z,99830.69
2022-08-28T19:40:28.688Z,99822.03
2022-08-28T19:42:55.536Z,99848.66
2022-08-28T19:45:22.483Z,99832.66
2022-08-28T19:47:49.497Z,99841.53
2022-08-28T19:50:16.594Z,99836.25
2022-08-28T19:52:44.878Z,99842.41
2022-08-28T19:55:26.173Z,99857.97
2022-08-28T19:57:53.541Z,99858.13
2022-08-28T20:00:29.481Z,99873.75
2022-08-28T20:02:56.493Z,99885.97
2022-08-28T20:05:23.897Z,99866.75
2022-08-28T20:07:51.566Z,99873.66
2022-08-28T20:10:19.443Z,99893.00
2022-08-28T20:12:48.811Z,99866.19
2022-08-28T20:15:17.618Z,99890.88
2022-08-28T20:17:45.382Z,99896.03
2022-08-28T20:20:19.501Z,99907.66
2022-08-28T20:22:46.353Z,99900.06
2022-08-28T20:25:14.777Z,99907.97
2022-08-28T20:27:42.088Z,99905.94
2022-08-28T20:30:11.005Z,99925.63
2022-08-28T20:32:40.148Z,99917.41
2022-08-28T20:35:09.005Z,99893.72
2022-08-28T20:37:44.917Z,99916.25
2022-08-28T20:40:16.120Z,99907.66
2022-08-28T20:42:43.854Z,99894.34
2022-08-28T20:45:11.129Z,99874.25
2022-08-28T20:47:37.981Z,99876.75
2022-08-28T20:50:05.233Z,99882.84
2022-08-28T20:52:31.981Z,99894.59
2022-08-28T20:54:59.241Z,99900.31
2022-08-28T20:57:26.238Z,99908.81
2022-08-28T20:59:54.223Z,99911.31
2022-08-28T21:02:23.588Z,99904.34
2022-08-28T21:04:51.205Z,99899.75
2022-08-28T21:07:20.113Z,99884.19
2022-08-28T21:10:05.129Z,99889.13
2022-08-28T21:12:36.334Z,99891.69
2022-08-28T21:15:03.949Z,99844.75
2022-08-28T21:17:31.106Z,99869.97
2022-08-28T21:20:02.894Z,99893.84
2022-08-28T21:22:31.796Z,99883.09
2022-08-28T21:24:59.748Z,99896.94
2022-08-28T21:27:27.079Z,99897.81
2022-08-28T21:29:58.790Z,99865.31
2022-08-28T21:32:26.974Z,99882.88
2022-08-28T21:34:55.240Z,99902.91
2022-08-28T21:37:23.079Z,99892.59
2022-08-28T21:39:50.067Z,99888.81
2022-08-28T21:42:16.909Z,99877.97
2022-08-28T21:44:51.223Z,99904.75
2022-08-28T21:47:20.055Z,99902.13
2022-08-28T21:49:50.877Z,99912.69
2022-08-28T21:52:19.346Z,99894.53
2022-08-28T21:54:46.479Z,99901.56
2022-08-28T21:57:13.473Z,99895.78
2022-08-28T21:59:41.344Z,99894.34
2022-08-28T22:02:08.368Z,99855.69
2022-08-28T22:04:36.020Z,99829.16
2022-08-28T22:07:02.773Z,99873.34
2022-08-28T22:09:29.629Z,99882.66
2022-08-28T22:11:56.489Z,99864.56
2022-08-28T22:14:25.274Z,99880.50
2022-08-28T22:16:52.265Z,99883.28
2022-08-28T22:19:19.363Z,99881.19
2022-08-28T22:22:04.621Z,99870.50
2022-08-28T22:24:31.504Z,99863.97
2022-08-28T22:26:58.266Z,99870.94
2022-08-28T22:29:25.724Z,99835.56
2022-08-28T22:31:53.058Z,99877.31
2022-08-28T22:34:20.016Z,99868.78
2022-08-28T22:36:47.184Z,99872.00
2022-08-28T22:39:14.363Z,99844.97
2022-08-28T22:41:42.269Z,99832.78
2022-08-28T22:44:10.050Z,99820.91
2022-08-28T22:46:36.975Z,99840.56
2022-08-28T22:49:04.453Z,99844.97
2022-08-28T22:51:33.872Z,99840.50
2022-08-28T22:54:00.832Z,99857.56
2022-08-28T22:56:27.574Z,99841.06
2022-08-28T22:58:54.337Z,99847.28
2022-08-28T23:01:24.359Z,99823.75
2022-08-28T23:03:51.286Z,99841.88
2022-08-28T23:06:23.878Z,99815.41
2022-08-28T23:08:50.688Z,99834.56
2022-08-28T23:11:17.663Z,99846.13
2022-08-28T23:13:44.528Z,99838.00
2022-08-28T23:16:11.633Z,99838.13
2022-08-28T23:19:06.715Z,99834.66
2022-08-28T23:21:26.412Z,99848.44
2022-08-28T23:23:53.668Z,99840.78
2022-08-28T23:26:20.806Z,99832.34
2022-08-28T23:28:48.024Z,99809.59
2022-08-28T23:31:15.032Z,99813.88
2022-08-28T23:33:42.176Z,99837.00
2022-08-28T23:36:09.979Z,99805.59
2022-08-28T23:38:40.757Z,99817.63
2022-08-28T23:41:11.311Z,99817.38
2022-08-28T23:43:38.726Z,99815.03
2022-08-28T23:46:06.421Z,99806.84
2022-08-28T23:48:33.836Z,99787.13
2022-08-28T23:51:02.615Z,99799.38
2022-08-28T23:53:29.822Z,99807.91
2022-08-28T23:55:57.652Z,99796.34
2022-08-28T23:58:31.939Z,99792.91
